sensor_id;sensor_type;location;lat;lon;timestamp;P1;durP1;ratioP1;P2;durP2;ratioP2
41689;SDS011;27372;42.658;23.256;2023-10-13T00:00:25;15.75;;;6.35;;
41689;SDS011;27372;42.658;23.256;2023-10-13T00:02:54;11.63;;;6.15;;
41689;SDS011;27372;42.658;23.256;2023-10-13T00:05:26;10.13;;;6.35;;
41689;SDS011;27372;42.658;23.256;2023-10-13T00:07:53;11.45;;;6.60;;
41689;SDS011;27372;42.658;23.256;2023-10-13T00:10:19;11.52;;;6.90;;
41689;SDS011;27372;42.658;23.256;2023-10-13T00:12:44;12.55;;;6.40;;
41689;SDS011;27372;42.658;23.256;2023-10-13T00:25:39;11.15;;;7.10;;
41689;SDS011;27372;42.658;23.256;2023-10-13T00:30:34;10.98;;;6.80;;
41689;SDS011;27372;42.658;23.256;2023-10-13T00:33:00;9.68;;;6.85;;
41689;SDS011;27372;42.658;23.256;2023-10-13T00:35:26;14.38;;;7.50;;
41689;SDS011;27372;42.658;23.256;2023-10-13T00:38:02;16.40;;;7.50;;
41689;SDS011;27372;42.658;23.256;2023-10-13T00:40:42;15.63;;;7.43;;
41689;SDS011;27372;42.658;23.256;2023-10-13T00:43:21;12.82;;;7.25;;
41689;SDS011;27372;42.658;23.256;2023-10-13T00:48:25;15.93;;;7.07;;
41689;SDS011;27372;42.658;23.256;2023-10-13T00:50:57;11.27;;;6.35;;
41689;SDS011;27372;42.658;23.256;2023-10-13T00:53:28;14.98;;;7.80;;
41689;SDS011;27372;42.658;23.256;2023-10-13T00:55:58;12.93;;;7.45;;
41689;SDS011;27372;42.658;23.256;2023-10-13T00:58:33;17.00;;;8.13;;
41689;SDS011;27372;42.658;23.256;2023-10-13T01:01:03;14.98;;;7.68;;
41689;SDS011;27372;42.658;23.256;2023-10-13T01:03:52;19.83;;;7.50;;
41689;SDS011;27372;42.658;23.256;2023-10-13T01:06:20;13.50;;;7.38;;
41689;SDS011;27372;42.658;23.256;2023-10-13T01:08:56;18.55;;;8.20;;
41689;SDS011;27372;42.658;23.256;2023-10-13T01:11:24;16.23;;;8.00;;
41689;SDS011;27372;42.658;23.256;2023-10-13T01:13:54;11.10;;;7.40;;
41689;SDS011;27372;42.658;23.256;2023-10-13T01:16:20;16.30;;;7.05;;
41689;SDS011;27372;42.658;23.256;2023-10-13T01:18:48;15.32;;;7.40;;
41689;SDS011;27372;42.658;23.256;2023-10-13T01:21:15;15.35;;;7.60;;
41689;SDS011;27372;42.658;23.256;2023-10-13T01:23:44;13.30;;;8.18;;
41689;SDS011;27372;42.658;23.256;2023-10-13T01:26:11;16.48;;;7.78;;
41689;SDS011;27372;42.658;23.256;2023-10-13T01:28:40;12.02;;;7.47;;
41689;SDS011;27372;42.658;23.256;2023-10-13T01:31:12;10.93;;;7.45;;
41689;SDS011;27372;42.658;23.256;2023-10-13T01:33:58;17.05;;;7.82;;
41689;SDS011;27372;42.658;23.256;2023-10-13T01:36:26;14.87;;;7.60;;
41689;SDS011;27372;42.658;23.256;2023-10-13T01:38:53;14.07;;;8.02;;
41689;SDS011;27372;42.658;23.256;2023-10-13T01:41:20;11.48;;;7.20;;
41689;SDS011;27372;42.658;23.256;2023-10-13T01:43:47;15.40;;;7.60;;
41689;SDS011;27372;42.658;23.256;2023-10-13T01:46:13;11.23;;;7.75;;
41689;SDS011;27372;42.658;23.256;2023-10-13T01:48:40;13.38;;;7.57;;
41689;SDS011;27372;42.658;23.256;2023-10-13T01:51:08;14.18;;;8.35;;
41689;SDS011;27372;42.658;23.256;2023-10-13T01:53:35;12.35;;;7.90;;
41689;SDS011;27372;42.658;23.256;2023-10-13T01:56:02;16.17;;;8.65;;
41689;SDS011;27372;42.658;23.256;2023-10-13T01:58:31;15.70;;;8.50;;
41689;SDS011;27372;42.658;23.256;2023-10-13T02:00:56;14.23;;;8.13;;
41689;SDS011;27372;42.658;23.256;2023-10-13T02:03:22;18.33;;;8.05;;
41689;SDS011;27372;42.658;23.256;2023-10-13T02:05:48;15.25;;;8.43;;
41689;SDS011;27372;42.658;23.256;2023-10-13T02:10:44;20.70;;;8.98;;
41689;SDS011;27372;42.658;23.256;2023-10-13T02:13:12;22.50;;;8.90;;
41689;SDS011;27372;42.658;23.256;2023-10-13T02:15:41;14.40;;;8.32;;
41689;SDS011;27372;42.658;23.256;2023-10-13T02:18:09;14.50;;;7.60;;
41689;SDS011;27372;42.658;23.256;2023-10-13T02:20:34;10.40;;;7.25;;
41689;SDS011;27372;42.658;23.256;2023-10-13T02:23:07;9.27;;;7.07;;
41689;SDS011;27372;42.658;23.256;2023-10-13T02:25:35;13.23;;;8.02;;
41689;SDS011;27372;42.658;23.256;2023-10-13T02:28:22;15.77;;;7.47;;
41689;SDS011;27372;42.658;23.256;2023-10-13T02:30:53;12.07;;;7.35;;
41689;SDS011;27372;42.658;23.256;2023-10-13T02:33:18;14.85;;;7.93;;
41689;SDS011;27372;42.658;23.256;2023-10-13T02:35:47;11.45;;;7.10;;
41689;SDS011;27372;42.658;23.256;2023-10-13T02:38:20;13.88;;;7.40;;
41689;SDS011;27372;42.658;23.256;2023-10-13T02:41:10;15.80;;;7.38;;
41689;SDS011;27372;42.658;23.256;2023-10-13T02:43:53;12.77;;;7.30;;
41689;SDS011;27372;42.658;23.256;2023-10-13T02:46:19;10.38;;;7.00;;
41689;SDS011;27372;42.658;23.256;2023-10-13T02:48:47;11.80;;;7.20;;
41689;SDS011;27372;42.658;23.256;2023-10-13T02:51:18;12.70;;;7.70;;
41689;SDS011;27372;42.658;23.256;2023-10-13T02:54:05;10.40;;;6.72;;
41689;SDS011;27372;42.658;23.256;2023-10-13T02:56:37;11.32;;;6.60;;
41689;SDS011;27372;42.658;23.256;2023-10-13T02:59:25;14.18;;;7.32;;
41689;SDS011;27372;42.658;23.256;2023-10-13T03:02:10;12.60;;;7.00;;
41689;SDS011;27372;42.658;23.256;2023-10-13T03:04:55;10.00;;;6.78;;
41689;SDS011;27372;42.658;23.256;2023-10-13T03:07:26;12.55;;;6.75;;
41689;SDS011;27372;42.658;23.256;2023-10-13T03:09:56;16.20;;;7.00;;
41689;SDS011;27372;42.658;23.256;2023-10-13T03:12:25;17.98;;;6.95;;
41689;SDS011;27372;42.658;23.256;2023-10-13T03:14:57;10.07;;;7.05;;
41689;SDS011;27372;42.658;23.256;2023-10-13T03:17:37;15.00;;;6.47;;
41689;SDS011;27372;42.658;23.256;2023-10-13T03:20:08;15.65;;;6.80;;
41689;SDS011;27372;42.658;23.256;2023-10-13T03:22:41;11.27;;;6.65;;
41689;SDS011;27372;42.658;23.256;2023-10-13T03:25:14;16.70;;;6.68;;
41689;SDS011;27372;42.658;23.256;2023-10-13T03:28:00;15.27;;;6.95;;
41689;SDS011;27372;42.658;23.256;2023-10-13T03:30:25;12.88;;;6.97;;
41689;SDS011;27372;42.658;23.256;2023-10-13T03:33:10;15.98;;;7.28;;
41689;SDS011;27372;42.658;23.256;2023-10-13T03:35:39;11.23;;;7.20;;
41689;SDS011;27372;42.658;23.256;2023-10-13T03:38:06;12.05;;;6.80;;
41689;SDS011;27372;42.658;23.256;2023-10-13T03:40:45;14.93;;;8.38;;
41689;SDS011;27372;42.658;23.256;2023-10-13T03:43:13;16.92;;;7.25;;
41689;SDS011;27372;42.658;23.256;2023-10-13T03:45:46;14.65;;;7.60;;
41689;SDS011;27372;42.658;23.256;2023-10-13T03:48:14;12.18;;;7.25;;
41689;SDS011;27372;42.658;23.256;2023-10-13T03:53:40;16.52;;;7.40;;
41689;SDS011;27372;42.658;23.256;2023-10-13T03:56:18;13.48;;;7.72;;
41689;SDS011;27372;42.658;23.256;2023-10-13T03:59:04;14.25;;;8.18;;
41689;SDS011;27372;42.658;23.256;2023-10-13T04:01:52;15.10;;;7.90;;
41689;SDS011;27372;42.658;23.256;2023-10-13T04:04:24;15.02;;;7.85;;
41689;SDS011;27372;42.658;23.256;2023-10-13T04:07:08;14.32;;;8.90;;
41689;SDS011;27372;42.658;23.256;2023-10-13T04:09:35;18.42;;;8.63;;
41689;SDS011;27372;42.658;23.256;2023-10-13T04:12:13;16.55;;;7.65;;
41689;SDS011;27372;42.658;23.256;2023-10-13T04:14:39;14.05;;;7.15;;
41689;SDS011;27372;42.658;23.256;2023-10-13T04:17:25;16.25;;;7.43;;
41689;SDS011;27372;42.658;23.256;2023-10-13T04:19:57;14.93;;;7.03;;
41689;SDS011;27372;42.658;23.256;2023-10-13T04:22:33;11.77;;;7.73;;
41689;SDS011;27372;42.658;23.256;2023-10-13T04:25:12;14.23;;;8.35;;
41689;SDS011;27372;42.658;23.256;2023-10-13T04:28:10;16.60;;;7.47;;
41689;SDS011;27372;42.658;23.256;2023-10-13T04:33:29;16.15;;;7.40;;
41689;SDS011;27372;42.658;23.256;2023-10-13T04:36:05;17.25;;;8.02;;
41689;SDS011;27372;42.658;23.256;2023-10-13T04:38:53;12.77;;;7.30;;
41689;SDS011;27372;42.658;23.256;2023-10-13T04:41:30;17.05;;;8.40;;
41689;SDS011;27372;42.658;23.256;2023-10-13T04:44:22;17.15;;;7.97;;
41689;SDS011;27372;42.658;23.256;2023-10-13T04:47:05;19.85;;;8.20;;
41689;SDS011;27372;42.658;23.256;2023-10-13T04:49:34;35.37;;;9.10;;
41689;SDS011;27372;42.658;23.256;2023-10-13T04:52:13;22.50;;;8.40;;
41689;SDS011;27372;42.658;23.256;2023-10-13T04:57:21;16.70;;;7.57;;
41689;SDS011;27372;42.658;23.256;2023-10-13T05:00:03;15.10;;;7.15;;
41689;SDS011;27372;42.658;23.256;2023-10-13T05:02:36;16.38;;;7.32;;
41689;SDS011;27372;42.658;23.256;2023-10-13T05:05:03;39.25;;;9.07;;
41689;SDS011;27372;42.658;23.256;2023-10-13T05:07:50;14.32;;;7.88;;
41689;SDS011;27372;42.658;23.256;2023-10-13T05:10:34;14.48;;;7.28;;
41689;SDS011;27372;42.658;23.256;2023-10-13T05:13:19;15.43;;;8.05;;
41689;SDS011;27372;42.658;23.256;2023-10-13T05:16:03;22.88;;;8.05;;
41689;SDS011;27372;42.658;23.256;2023-10-13T05:19:00;16.33;;;7.85;;
41689;SDS011;27372;42.658;23.256;2023-10-13T05:21:45;27.92;;;8.52;;
41689;SDS011;27372;42.658;23.256;2023-10-13T05:24:29;20.02;;;8.02;;
41689;SDS011;27372;42.658;23.256;2023-10-13T05:27:13;18.17;;;8.30;;
41689;SDS011;27372;42.658;23.256;2023-10-13T05:29:57;16.73;;;8.70;;
41689;SDS011;27372;42.658;23.256;2023-10-13T05:32:41;13.23;;;7.72;;
41689;SDS011;27372;42.658;23.256;2023-10-13T05:35:24;17.70;;;7.80;;
41689;SDS011;27372;42.658;23.256;2023-10-13T05:38:09;19.63;;;8.27;;
41689;SDS011;27372;42.658;23.256;2023-10-13T05:40:58;20.80;;;8.23;;
41689;SDS011;27372;42.658;23.256;2023-10-13T05:43:43;21.52;;;7.93;;
41689;SDS011;27372;42.658;23.256;2023-10-13T05:46:28;16.70;;;7.40;;
41689;SDS011;27372;42.658;23.256;2023-10-13T05:49:03;16.60;;;8.20;;
41689;SDS011;27372;42.658;23.256;2023-10-13T05:51:32;15.60;;;7.93;;
41689;SDS011;27372;42.658;23.256;2023-10-13T05:54:08;21.20;;;7.93;;
41689;SDS011;27372;42.658;23.256;2023-10-13T05:56:41;23.25;;;7.68;;
41689;SDS011;27372;42.658;23.256;2023-10-13T05:59:29;17.85;;;7.30;;
41689;SDS011;27372;42.658;23.256;2023-10-13T06:02:15;15.75;;;8.02;;
41689;SDS011;27372;42.658;23.256;2023-10-13T06:07:46;13.70;;;7.97;;
41689;SDS011;27372;42.658;23.256;2023-10-13T06:10:30;14.65;;;7.65;;
41689;SDS011;27372;42.658;23.256;2023-10-13T06:13:14;18.58;;;7.35;;
41689;SDS011;27372;42.658;23.256;2023-10-13T06:15:58;20.98;;;7.68;;
41689;SDS011;27372;42.658;23.256;2023-10-13T06:18:42;15.10;;;7.70;;
41689;SDS011;27372;42.658;23.256;2023-10-13T06:21:26;15.10;;;8.07;;
41689;SDS011;27372;42.658;23.256;2023-10-13T06:24:10;23.98;;;9.30;;
41689;SDS011;27372;42.658;23.256;2023-10-13T06:26:57;27.02;;;9.52;;
41689;SDS011;27372;42.658;23.256;2023-10-13T06:29:41;20.27;;;10.43;;
41689;SDS011;27372;42.658;23.256;2023-10-13T06:32:11;36.63;;;11.30;;
41689;SDS011;27372;42.658;23.256;2023-10-13T06:34:37;26.13;;;11.40;;
41689;SDS011;27372;42.658;23.256;2023-10-13T06:37:09;30.00;;;11.40;;
41689;SDS011;27372;42.658;23.256;2023-10-13T06:39:50;28.17;;;12.75;;
41689;SDS011;27372;42.658;23.256;2023-10-13T06:42:16;30.08;;;13.88;;
41689;SDS011;27372;42.658;23.256;2023-10-13T06:44:43;28.95;;;12.38;;
41689;SDS011;27372;42.658;23.256;2023-10-13T06:47:14;28.60;;;12.80;;
41689;SDS011;27372;42.658;23.256;2023-10-13T06:49:40;37.30;;;13.37;;
41689;SDS011;27372;42.658;23.256;2023-10-13T06:52:08;29.38;;;13.32;;
41689;SDS011;27372;42.658;23.256;2023-10-13T06:54:34;28.80;;;13.85;;
41689;SDS011;27372;42.658;23.256;2023-10-13T06:57:00;27.35;;;14.20;;
41689;SDS011;27372;42.658;23.256;2023-10-13T06:59:28;25.05;;;13.90;;
41689;SDS011;27372;42.658;23.256;2023-10-13T07:04:28;30.15;;;15.23;;
41689;SDS011;27372;42.658;23.256;2023-10-13T07:06:54;37.70;;;16.60;;
41689;SDS011;27372;42.658;23.256;2023-10-13T07:09:19;41.97;;;16.35;;
41689;SDS011;27372;42.658;23.256;2023-10-13T07:12:11;34.00;;;17.30;;
41689;SDS011;27372;42.658;23.256;2023-10-13T07:14:48;36.67;;;17.25;;
41689;SDS011;27372;42.658;23.256;2023-10-13T07:17:16;35.35;;;17.20;;
41689;SDS011;27372;42.658;23.256;2023-10-13T07:19:48;58.45;;;17.85;;
41689;SDS011;27372;42.658;23.256;2023-10-13T07:22:18;37.53;;;18.17;;
41689;SDS011;27372;42.658;23.256;2023-10-13T07:24:45;30.42;;;17.23;;
41689;SDS011;27372;42.658;23.256;2023-10-13T07:27:17;33.75;;;17.63;;
41689;SDS011;27372;42.658;23.256;2023-10-13T07:29:55;32.50;;;17.38;;
41689;SDS011;27372;42.658;23.256;2023-10-13T07:32:24;31.80;;;16.27;;
41689;SDS011;27372;42.658;23.256;2023-10-13T07:34:52;33.95;;;16.48;;
41689;SDS011;27372;42.658;23.256;2023-10-13T07:37:23;40.63;;;16.52;;
41689;SDS011;27372;42.658;23.256;2023-10-13T07:39:54;35.30;;;15.82;;
41689;SDS011;27372;42.658;23.256;2023-10-13T07:42:24;35.47;;;16.05;;
41689;SDS011;27372;42.658;23.256;2023-10-13T07:44:57;28.73;;;15.75;;
41689;SDS011;27372;42.658;23.256;2023-10-13T07:47:24;37.72;;;16.45;;
41689;SDS011;27372;42.658;23.256;2023-10-13T07:49:51;35.97;;;16.55;;
41689;SDS011;27372;42.658;23.256;2023-10-13T07:52:17;31.73;;;16.50;;
41689;SDS011;27372;42.658;23.256;2023-10-13T07:54:45;28.52;;;15.30;;
41689;SDS011;27372;42.658;23.256;2023-10-13T07:57:15;36.33;;;15.63;;
41689;SDS011;27372;42.658;23.256;2023-10-13T07:59:42;36.90;;;16.15;;
41689;SDS011;27372;42.658;23.256;2023-10-13T08:02:19;36.55;;;15.82;;
41689;SDS011;27372;42.658;23.256;2023-10-13T08:05:08;26.70;;;16.17;;
41689;SDS011;27372;42.658;23.256;2023-10-13T08:07:34;33.95;;;15.07;;
41689;SDS011;27372;42.658;23.256;2023-10-13T08:10:04;36.10;;;15.68;;
41689;SDS011;27372;42.658;23.256;2023-10-13T08:12:34;30.67;;;16.02;;
41689;SDS011;27372;42.658;23.256;2023-10-13T08:15:02;34.08;;;15.85;;
41689;SDS011;27372;42.658;23.256;2023-10-13T08:17:38;32.78;;;15.48;;
41689;SDS011;27372;42.658;23.256;2023-10-13T08:20:09;32.58;;;15.65;;
41689;SDS011;27372;42.658;23.256;2023-10-13T08:22:37;29.73;;;15.50;;
41689;SDS011;27372;42.658;23.256;2023-10-13T08:25:03;33.08;;;14.98;;
41689;SDS011;27372;42.658;23.256;2023-10-13T08:28:01;32.38;;;15.25;;
41689;SDS011;27372;42.658;23.256;2023-10-13T08:30:50;29.80;;;14.55;;
41689;SDS011;27372;42.658;23.256;2023-10-13T08:33:19;39.15;;;14.98;;
41689;SDS011;27372;42.658;23.256;2023-10-13T08:35:49;29.27;;;14.20;;
41689;SDS011;27372;42.658;23.256;2023-10-13T08:38:40;44.88;;;14.48;;
41689;SDS011;27372;42.658;23.256;2023-10-13T08:41:16;38.25;;;15.23;;
41689;SDS011;27372;42.658;23.256;2023-10-13T08:43:44;35.05;;;15.30;;
41689;SDS011;27372;42.658;23.256;2023-10-13T08:46:16;38.40;;;14.57;;
41689;SDS011;27372;42.658;23.256;2023-10-13T08:48:58;24.63;;;13.88;;
41689;SDS011;27372;42.658;23.256;2023-10-13T08:51:51;29.67;;;14.05;;
41689;SDS011;27372;42.658;23.256;2023-10-13T08:54:38;35.60;;;14.70;;
41689;SDS011;27372;42.658;23.256;2023-10-13T08:57:11;30.13;;;13.85;;
41689;SDS011;27372;42.658;23.256;2023-10-13T08:59:55;30.10;;;13.93;;
41689;SDS011;27372;42.658;23.256;2023-10-13T09:02:23;29.58;;;13.95;;
41689;SDS011;27372;42.658;23.256;2023-10-13T09:05:07;31.73;;;13.95;;
41689;SDS011;27372;42.658;23.256;2023-10-13T09:07:54;31.45;;;14.25;;
41689;SDS011;27372;42.658;23.256;2023-10-13T09:10:24;32.92;;;14.32;;
41689;SDS011;27372;42.658;23.256;2023-10-13T09:12:58;31.65;;;13.73;;
41689;SDS011;27372;42.658;23.256;2023-10-13T09:15:28;28.15;;;13.65;;
41689;SDS011;27372;42.658;23.256;2023-10-13T09:18:22;39.78;;;13.50;;
41689;SDS011;27372;42.658;23.256;2023-10-13T09:21:03;32.65;;;13.38;;
41689;SDS011;27372;42.658;23.256;2023-10-13T09:23:48;21.60;;;11.80;;
41689;SDS011;27372;42.658;23.256;2023-10-13T09:26:14;28.30;;;12.40;;
41689;SDS011;27372;42.658;23.256;2023-10-13T09:28:42;29.63;;;12.43;;
41689;SDS011;27372;42.658;23.256;2023-10-13T09:31:08;31.13;;;9.70;;
41689;SDS011;27372;42.658;23.256;2023-10-13T09:33:35;27.05;;;9.40;;
41689;SDS011;27372;42.658;23.256;2023-10-13T09:36:01;23.08;;;9.38;;
41689;SDS011;27372;42.658;23.256;2023-10-13T09:38:29;29.15;;;8.68;;
41689;SDS011;27372;42.658;23.256;2023-10-13T09:45:58;19.00;;;7.63;;
41689;SDS011;27372;42.658;23.256;2023-10-13T09:48:37;23.02;;;7.22;;
41689;SDS011;27372;42.658;23.256;2023-10-13T09:51:12;16.35;;;6.72;;
41689;SDS011;27372;42.658;23.256;2023-10-13T09:53:38;21.23;;;6.55;;
41689;SDS011;27372;42.658;23.256;2023-10-13T09:58:47;18.10;;;6.95;;
41689;SDS011;27372;42.658;23.256;2023-10-13T10:01:24;19.63;;;6.85;;
41689;SDS011;27372;42.658;23.256;2023-10-13T10:04:17;22.55;;;6.57;;
41689;SDS011;27372;42.658;23.256;2023-10-13T10:06:54;16.88;;;6.47;;
41689;SDS011;27372;42.658;23.256;2023-10-13T10:09:31;15.95;;;6.40;;
41689;SDS011;27372;42.658;23.256;2023-10-13T10:15:11;17.08;;;6.15;;
41689;SDS011;27372;42.658;23.256;2023-10-13T10:21:03;17.20;;;6.78;;
41689;SDS011;27372;42.658;23.256;2023-10-13T10:23:32;23.75;;;6.60;;
41689;SDS011;27372;42.658;23.256;2023-10-13T10:26:10;17.80;;;5.68;;
41689;SDS011;27372;42.658;23.256;2023-10-13T10:28:43;19.17;;;6.38;;
41689;SDS011;27372;42.658;23.256;2023-10-13T10:33:37;10.32;;;5.68;;
41689;SDS011;27372;42.658;23.256;2023-10-13T10:36:06;22.20;;;6.00;;
41689;SDS011;27372;42.658;23.256;2023-10-13T10:38:50;16.88;;;6.00;;
41689;SDS011;27372;42.658;23.256;2023-10-13T10:41:27;16.33;;;5.72;;
41689;SDS011;27372;42.658;23.256;2023-10-13T10:44:17;13.88;;;5.40;;
41689;SDS011;27372;42.658;23.256;2023-10-13T10:46:50;11.07;;;4.70;;
41689;SDS011;27372;42.658;23.256;2023-10-13T10:49:23;12.10;;;4.13;;
41689;SDS011;27372;42.658;23.256;2023-10-13T10:51:55;16.23;;;4.40;;
41689;SDS011;27372;42.658;23.256;2023-10-13T10:54:32;12.20;;;3.88;;
41689;SDS011;27372;42.658;23.256;2023-10-13T10:56:58;32.50;;;4.35;;
41689;SDS011;27372;42.658;23.256;2023-10-13T10:59:36;7.85;;;3.90;;
41689;SDS011;27372;42.658;23.256;2023-10-13T11:02:05;7.22;;;3.22;;
41689;SDS011;27372;42.658;23.256;2023-10-13T11:04:32;8.98;;;3.67;;
41689;SDS011;27372;42.658;23.256;2023-10-13T11:07:06;8.70;;;3.60;;
41689;SDS011;27372;42.658;23.256;2023-10-13T11:09:33;8.77;;;4.03;;
41689;SDS011;27372;42.658;23.256;2023-10-13T11:14:31;15.98;;;4.00;;
41689;SDS011;27372;42.658;23.256;2023-10-13T11:16:58;8.60;;;3.40;;
41689;SDS011;27372;42.658;23.256;2023-10-13T11:19:42;12.00;;;3.55;;
41689;SDS011;27372;42.658;23.256;2023-10-13T11:25:02;11.40;;;3.78;;
41689;SDS011;27372;42.658;23.256;2023-10-13T11:27:34;10.15;;;3.60;;
41689;SDS011;27372;42.658;23.256;2023-10-13T11:30:12;11.40;;;4.20;;
41689;SDS011;27372;42.658;23.256;2023-10-13T11:32:42;9.55;;;3.45;;
41689;SDS011;27372;42.658;23.256;2023-10-13T11:35:08;9.63;;;2.95;;
41689;SDS011;27372;42.658;23.256;2023-10-13T11:37:55;10.88;;;2.58;;
41689;SDS011;27372;42.658;23.256;2023-10-13T11:40:38;8.05;;;2.67;;
41689;SDS011;27372;42.658;23.256;2023-10-13T11:43:30;7.72;;;2.67;;
41689;SDS011;27372;42.658;23.256;2023-10-13T11:46:08;7.65;;;2.42;;
41689;SDS011;27372;42.658;23.256;2023-10-13T11:48:34;10.82;;;2.80;;
41689;SDS011;27372;42.658;23.256;2023-10-13T11:51:04;7.07;;;2.45;;
41689;SDS011;27372;42.658;23.256;2023-10-13T11:53:36;15.30;;;3.05;;
41689;SDS011;27372;42.658;23.256;2023-10-13T11:56:02;6.30;;;2.45;;
41689;SDS011;27372;42.658;23.256;2023-10-13T11:58:35;9.18;;;2.97;;
41689;SDS011;27372;42.658;23.256;2023-10-13T12:01:01;7.93;;;3.00;;
41689;SDS011;27372;42.658;23.256;2023-10-13T12:03:45;8.27;;;2.90;;
41689;SDS011;27372;42.658;23.256;2023-10-13T12:06:32;9.43;;;3.03;;
41689;SDS011;27372;42.658;23.256;2023-10-13T12:09:10;11.45;;;3.10;;
41689;SDS011;27372;42.658;23.256;2023-10-13T12:11:47;5.32;;;2.58;;
41689;SDS011;27372;42.658;23.256;2023-10-13T12:14:19;4.53;;;2.13;;
41689;SDS011;27372;42.658;23.256;2023-10-13T12:16:46;5.77;;;2.50;;
41689;SDS011;27372;42.658;23.256;2023-10-13T12:19:22;8.50;;;2.75;;
41689;SDS011;27372;42.658;23.256;2023-10-13T12:21:52;12.00;;;3.15;;
41689;SDS011;27372;42.658;23.256;2023-10-13T12:24:21;11.35;;;2.88;;
41689;SDS011;27372;42.658;23.256;2023-10-13T12:27:06;8.25;;;2.95;;
41689;SDS011;27372;42.658;23.256;2023-10-13T12:29:52;12.35;;;2.90;;
41689;SDS011;27372;42.658;23.256;2023-10-13T12:32:18;15.25;;;2.80;;
41689;SDS011;27372;42.658;23.256;2023-10-13T12:34:50;9.18;;;2.60;;
41689;SDS011;27372;42.658;23.256;2023-10-13T12:37:25;8.68;;;3.05;;
41689;SDS011;27372;42.658;23.256;2023-10-13T12:40:12;27.85;;;3.38;;
41689;SDS011;27372;42.658;23.256;2023-10-13T12:42:56;30.30;;;3.55;;
41689;SDS011;27372;42.658;23.256;2023-10-13T12:45:40;8.93;;;2.83;;
41689;SDS011;27372;42.658;23.256;2023-10-13T12:48:29;12.10;;;3.15;;
41689;SDS011;27372;42.658;23.256;2023-10-13T12:51:14;9.35;;;2.50;;
41689;SDS011;27372;42.658;23.256;2023-10-13T12:53:58;10.90;;;3.20;;
41689;SDS011;27372;42.658;23.256;2023-10-13T12:56:45;13.70;;;2.97;;
41689;SDS011;27372;42.658;23.256;2023-10-13T12:59:11;6.88;;;2.78;;
41689;SDS011;27372;42.658;23.256;2023-10-13T13:01:40;9.50;;;2.95;;
41689;SDS011;27372;42.658;23.256;2023-10-13T13:04:07;17.20;;;2.97;;
41689;SDS011;27372;42.658;23.256;2023-10-13T13:06:38;11.02;;;2.75;;
41689;SDS011;27372;42.658;23.256;2023-10-13T13:09:05;10.18;;;3.08;;
41689;SDS011;27372;42.658;23.256;2023-10-13T13:11:34;9.57;;;2.65;;
41689;SDS011;27372;42.658;23.256;2023-10-13T13:14:04;16.63;;;3.17;;
41689;SDS011;27372;42.658;23.256;2023-10-13T13:16:33;11.77;;;2.80;;
41689;SDS011;27372;42.658;23.256;2023-10-13T13:18:59;11.88;;;3.33;;
41689;SDS011;27372;42.658;23.256;2023-10-13T13:21:28;10.27;;;3.97;;
41689;SDS011;27372;42.658;23.256;2023-10-13T13:23:54;7.28;;;2.40;;
41689;SDS011;27372;42.658;23.256;2023-10-13T13:26:23;6.97;;;2.60;;
41689;SDS011;27372;42.658;23.256;2023-10-13T13:28:49;6.53;;;2.40;;
41689;SDS011;27372;42.658;23.256;2023-10-13T13:31:20;9.02;;;2.70;;
41689;SDS011;27372;42.658;23.256;2023-10-13T13:33:54;6.75;;;2.38;;
41689;SDS011;27372;42.658;23.256;2023-10-13T13:36:20;7.03;;;2.50;;
41689;SDS011;27372;42.658;23.256;2023-10-13T13:38:47;11.75;;;3.03;;
41689;SDS011;27372;42.658;23.256;2023-10-13T13:41:17;13.73;;;2.80;;
41689;SDS011;27372;42.658;23.256;2023-10-13T13:43:43;8.40;;;2.67;;
41689;SDS011;27372;42.658;23.256;2023-10-13T13:46:18;41.85;;;3.90;;
41689;SDS011;27372;42.658;23.256;2023-10-13T13:48:52;6.88;;;2.72;;
41689;SDS011;27372;42.658;23.256;2023-10-13T13:51:28;7.82;;;3.10;;
41689;SDS011;27372;42.658;23.256;2023-10-13T13:53:55;11.60;;;2.58;;
41689;SDS011;27372;42.658;23.256;2023-10-13T13:56:21;7.20;;;2.83;;
41689;SDS011;27372;42.658;23.256;2023-10-13T13:58:50;11.95;;;2.85;;
41689;SDS011;27372;42.658;23.256;2023-10-13T14:01:16;8.32;;;2.80;;
41689;SDS011;27372;42.658;23.256;2023-10-13T14:03:51;19.27;;;3.10;;
41689;SDS011;27372;42.658;23.256;2023-10-13T14:06:21;13.00;;;3.28;;
41689;SDS011;27372;42.658;23.256;2023-10-13T14:08:49;8.38;;;2.90;;
41689;SDS011;27372;42.658;23.256;2023-10-13T14:11:20;19.58;;;3.05;;
41689;SDS011;27372;42.658;23.256;2023-10-13T14:14:09;9.80;;;3.08;;
41689;SDS011;27372;42.658;23.256;2023-10-13T14:22:10;22.38;;;4.97;;
41689;SDS011;27372;42.658;23.256;2023-10-13T14:24:37;9.30;;;3.75;;
41689;SDS011;27372;42.658;23.256;2023-10-13T14:27:08;19.25;;;3.90;;
41689;SDS011;27372;42.658;23.256;2023-10-13T14:29:40;16.13;;;6.40;;
41689;SDS011;27372;42.658;23.256;2023-10-13T14:32:07;8.40;;;3.28;;
41689;SDS011;27372;42.658;23.256;2023-10-13T14:34:43;20.67;;;5.68;;
41689;SDS011;27372;42.658;23.256;2023-10-13T14:37:19;12.25;;;4.65;;
41689;SDS011;27372;42.658;23.256;2023-10-13T14:39:51;16.38;;;4.60;;
41689;SDS011;27372;42.658;23.256;2023-10-13T14:45:44;9.40;;;3.85;;
41689;SDS011;27372;42.658;23.256;2023-10-13T14:48:10;17.75;;;5.50;;
41689;SDS011;27372;42.658;23.256;2023-10-13T14:50:39;19.60;;;6.03;;
41689;SDS011;27372;42.658;23.256;2023-10-13T14:53:07;15.20;;;4.45;;
41689;SDS011;27372;42.658;23.256;2023-10-13T14:55:37;18.00;;;4.72;;
41689;SDS011;27372;42.658;23.256;2023-10-13T14:58:03;19.30;;;5.90;;
41689;SDS011;27372;42.658;23.256;2023-10-13T15:00:29;33.38;;;7.68;;
41689;SDS011;27372;42.658;23.256;2023-10-13T15:02:56;20.88;;;6.53;;
41689;SDS011;27372;42.658;23.256;2023-10-13T15:05:26;20.55;;;9.43;;
41689;SDS011;27372;42.658;23.256;2023-10-13T15:10:21;14.05;;;6.50;;
41689;SDS011;27372;42.658;23.256;2023-10-13T15:12:46;17.95;;;5.18;;
41689;SDS011;27372;42.658;23.256;2023-10-13T15:15:13;11.40;;;3.58;;
41689;SDS011;27372;42.658;23.256;2023-10-13T15:17:41;10.90;;;4.07;;
41689;SDS011;27372;42.658;23.256;2023-10-13T15:20:09;8.15;;;4.00;;
41689;SDS011;27372;42.658;23.256;2023-10-13T15:22:41;13.40;;;6.53;;
41689;SDS011;27372;42.658;23.256;2023-10-13T15:25:07;12.25;;;5.57;;
41689;SDS011;27372;42.658;23.256;2023-10-13T15:27:45;16.67;;;6.82;;
41689;SDS011;27372;42.658;23.256;2023-10-13T15:30:20;23.75;;;6.57;;
41689;SDS011;27372;42.658;23.256;2023-10-13T15:32:48;20.50;;;9.82;;
41689;SDS011;27372;42.658;23.256;2023-10-13T15:35:15;15.75;;;5.13;;
41689;SDS011;27372;42.658;23.256;2023-10-13T15:37:41;20.08;;;7.50;;
41689;SDS011;27372;42.658;23.256;2023-10-13T15:40:12;10.85;;;4.85;;
41689;SDS011;27372;42.658;23.256;2023-10-13T15:42:41;11.82;;;3.65;;
41689;SDS011;27372;42.658;23.256;2023-10-13T15:45:07;11.32;;;4.60;;
41689;SDS011;27372;42.658;23.256;2023-10-13T15:47:42;16.40;;;4.05;;
41689;SDS011;27372;42.658;23.256;2023-10-13T15:50:13;10.38;;;3.63;;
41689;SDS011;27372;42.658;23.256;2023-10-13T15:52:45;18.38;;;3.55;;
41689;SDS011;27372;42.658;23.256;2023-10-13T15:55:14;17.88;;;4.13;;
41689;SDS011;27372;42.658;23.256;2023-10-13T15:57:42;19.02;;;4.40;;
41689;SDS011;27372;42.658;23.256;2023-10-13T16:00:09;26.30;;;5.25;;
41689;SDS011;27372;42.658;23.256;2023-10-13T16:02:56;21.77;;;4.60;;